Meridian — EI6085 — position and weather

sailwx.info

Track history (hours):
 
Tides and Currents Weather Stations Pressure Air Temp Water Temp Dewpoint Dewpoint Depression Visibility Wind Speed Wind Dir Waves Ship Positions

Meridian

Last reported at 2014-Nov-11 12:09 UTC. Time now 2014-Nov-26 05:11 UTC.
Position N 54°38' W 008°27'.
Warning: this ship's position is 14 days out of date.

Length 12 m.

Type: Fishing. MMSI: 250107450.

Date/timePositionNaut miles runAvg speedWind from/ knotsBaromVisibWave heightAir tempDewpointWater temp
2014-Nov-11 12:09N 54°38' W 008°27'0 0.0
2014-Nov-09 15:31N 54°38' W 008°27'0 0.1
2014-Nov-09 14:31N 54°38' W 008°27'0 0.0
2014-Nov-09 13:31N 54°38' W 008°27'0 0.0
2014-Nov-09 12:33N 54°38' W 008°27'3 3.4
2014-Nov-09 11:32N 54°35' W 008°29'1 1.4
2014-Nov-09 10:31N 54°34' W 008°30'1 1.1
2014-Nov-09 09:30N 54°35' W 008°29'4 0.2
2014-Nov-08 16:34N 54°38' W 008°27'4 3.8
2014-Nov-08 15:31N 54°35' W 008°32'2 1.8
2014-Nov-08 14:30N 54°36' W 008°35'0 0.0
2014-Nov-08 13:29N 54°36' W 008°35'1 1.2
2014-Nov-08 12:33N 54°35' W 008°33'2 2.2
2014-Nov-08 11:33N 54°34' W 008°30'2 1.5
2014-Nov-08 10:33N 54°35' W 008°29'2 2.3
2014-Nov-08 09:33N 54°37' W 008°27'  
2014-Nov-05 18:21N 54°38' W 008°27'6 7.3
2014-Nov-05 17:33N 54°36' W 008°36'7 0.9
2014-Nov-05 10:06N 54°37' W 008°48'5 9.0
2014-Nov-05 09:33N 54°36' W 008°40'8 0.4
2014-Nov-04 15:24N 54°38' W 008°27'5 5.3
2014-Nov-04 14:30N 54°35' W 008°32'5 1.2
2014-Nov-04 10:33N 54°37' W 008°40'7 7.4
2014-Nov-04 09:33N 54°37' W 008°27'1 0.1
2014-Nov-03 14:19N 54°38' W 008°27'0 0.3
2014-Nov-03 13:27N 54°38' W 008°27'1 1.4
2014-Nov-03 12:33N 54°37' W 008°27'1 1.2
2014-Nov-03 11:33N 54°38' W 008°27'0 0.0
2014-Nov-03 10:33N 54°38' W 008°27'  
Track history (hours):
 
Tides and Currents Weather Stations Pressure Air Temp Water Temp Dewpoint Dewpoint Depression Visibility Wind Speed Wind Dir Waves Ship Positions

Meridian

Last reported at 2014-Nov-11 12:09 UTC. Time now 2014-Nov-26 05:11 UTC.
Position N 54°38' W 008°27'.
Warning: this ship's position is 14 days out of date.

Length 12 m.

Type: Fishing. MMSI: 250107450.

Date/timePositionNaut miles runAvg speedWind from/ knotsBaromVisibWave heightAir tempDewpointWater temp
2014-Nov-11 12:09N 54°38' W 008°27'0 0.0
2014-Nov-09 15:31N 54°38' W 008°27'0 0.1
2014-Nov-09 14:31N 54°38' W 008°27'0 0.0
2014-Nov-09 13:31N 54°38' W 008°27'0 0.0
2014-Nov-09 12:33N 54°38' W 008°27'3 3.4
2014-Nov-09 11:32N 54°35' W 008°29'1 1.4
2014-Nov-09 10:31N 54°34' W 008°30'1 1.1
2014-Nov-09 09:30N 54°35' W 008°29'4 0.2
2014-Nov-08 16:34N 54°38' W 008°27'4 3.8
2014-Nov-08 15:31N 54°35' W 008°32'2 1.8
2014-Nov-08 14:30N 54°36' W 008°35'0 0.0
2014-Nov-08 13:29N 54°36' W 008°35'1 1.2
2014-Nov-08 12:33N 54°35' W 008°33'2 2.2
2014-Nov-08 11:33N 54°34' W 008°30'2 1.5
2014-Nov-08 10:33N 54°35' W 008°29'2 2.3
2014-Nov-08 09:33N 54°37' W 008°27'  
2014-Nov-05 18:21N 54°38' W 008°27'6 7.3
2014-Nov-05 17:33N 54°36' W 008°36'7 0.9
2014-Nov-05 10:06N 54°37' W 008°48'5 9.0
2014-Nov-05 09:33N 54°36' W 008°40'8 0.4
2014-Nov-04 15:24N 54°38' W 008°27'5 5.3
2014-Nov-04 14:30N 54°35' W 008°32'5 1.2
2014-Nov-04 10:33N 54°37' W 008°40'7 7.4
2014-Nov-04 09:33N 54°37' W 008°27'1 0.1
2014-Nov-03 14:19N 54°38' W 008°27'0 0.3
2014-Nov-03 13:27N 54°38' W 008°27'1 1.4
2014-Nov-03 12:33N 54°37' W 008°27'1 1.2
2014-Nov-03 11:33N 54°38' W 008°27'0 0.0
2014-Nov-03 10:33N 54°38' W 008°27'  

Dump ship's entire track history